createdAt,value
2022-07-28T00:04:31.604Z,2.00
2022-07-28T00:09:34.343Z,2.40
2022-07-28T00:14:38.624Z,2.80
2022-07-28T00:19:41.348Z,2.80
2022-07-28T00:24:44.071Z,2.00
2022-07-28T00:29:51.020Z,2.00
2022-07-28T00:34:54.280Z,2.60
2022-07-28T00:39:57.186Z,2.80
2022-07-28T00:45:01.325Z,2.00
2022-07-28T00:50:04.147Z,2.00
2022-07-28T00:55:07.865Z,2.00
2022-07-28T01:00:13.290Z,2.00
2022-07-28T01:05:16.113Z,1.40
2022-07-28T01:10:22.479Z,2.00
2022-07-28T01:15:31.042Z,2.00
2022-07-28T01:20:36.835Z,2.00
2022-07-28T01:25:48.545Z,2.00
2022-07-28T01:30:54.555Z,2.20
2022-07-28T01:36:04.694Z,3.00
2022-07-28T01:41:08.673Z,2.40
2022-07-28T01:46:13.064Z,2.00
2022-07-28T01:51:15.871Z,2.00
2022-07-28T01:56:19.292Z,2.00
2022-07-28T02:01:23.569Z,2.20
2022-07-28T02:06:26.427Z,2.00
2022-07-28T02:11:41.549Z,2.00
2022-07-28T02:16:48.452Z,2.40
2022-07-28T02:21:51.324Z,1.00
2022-07-28T02:26:57.102Z,2.40
2022-07-28T02:32:03.214Z,2.40
2022-07-28T02:37:06.739Z,2.00
2022-07-28T02:42:18.593Z,2.00
2022-07-28T02:47:24.936Z,2.00
2022-07-28T02:52:27.825Z,2.00
2022-07-28T02:57:30.784Z,3.00
2022-07-28T03:02:36.721Z,2.00
2022-07-28T03:07:42.465Z,2.00
2022-07-28T03:12:55.141Z,2.00
2022-07-28T03:18:00.078Z,2.00
2022-07-28T03:23:03.164Z,2.00
2022-07-28T03:28:06.080Z,2.40
2022-07-28T03:33:10.127Z,2.00
2022-07-28T03:38:14.473Z,2.00
2022-07-28T03:43:22.372Z,2.60
2022-07-28T03:48:30.833Z,2.00
2022-07-28T03:53:33.642Z,2.00
2022-07-28T03:58:36.620Z,3.00
2022-07-28T04:03:43.907Z,2.00
2022-07-28T04:08:47.140Z,2.00
2022-07-28T04:13:50.025Z,3.00
2022-07-28T04:18:54.180Z,2.20
2022-07-28T04:24:01.642Z,2.00
2022-07-28T04:29:04.980Z,3.00
2022-07-28T04:34:09.852Z,2.00
2022-07-28T04:39:12.639Z,2.00
2022-07-28T04:44:17.289Z,3.00
2022-07-28T04:49:21.760Z,2.00
2022-07-28T04:54:26.811Z,2.00
2022-07-28T04:59:29.718Z,2.40
2022-07-28T05:04:36.020Z,3.00
2022-07-28T05:09:38.819Z,1.80
2022-07-28T05:14:42.086Z,2.00
2022-07-28T05:19:46.205Z,2.00
2022-07-28T05:24:48.972Z,1.80
2022-07-28T05:29:52.186Z,2.80
2022-07-28T05:34:56.332Z,3.00
2022-07-28T05:39:59.145Z,2.00
2022-07-28T05:45:01.771Z,2.00
2022-07-28T05:50:06.602Z,1.60
2022-07-28T05:55:09.922Z,1.00
2022-07-28T06:00:14.510Z,1.40
2022-07-28T06:05:18.886Z,1.80
2022-07-28T06:10:22.609Z,1.80
2022-07-28T06:15:26.558Z,2.00
2022-07-28T06:20:31.224Z,1.00
2022-07-28T06:25:34.091Z,1.00
2022-07-28T06:30:37.034Z,0.20
2022-07-28T06:35:46.699Z,1.60
2022-07-28T06:40:54.288Z,0.80
2022-07-28T06:45:57.141Z,2.00
2022-07-28T06:51:01.389Z,2.00
2022-07-28T06:56:05.171Z,1.40
2022-07-28T07:01:09.083Z,1.00
2022-07-28T07:06:13.366Z,2.00
2022-07-28T07:11:16.174Z,1.20
2022-07-28T07:16:19.433Z,1.00
2022-07-28T07:21:23.870Z,2.00
2022-07-28T07:26:29.057Z,1.00
2022-07-28T07:31:33.127Z,1.60
2022-07-28T07:36:37.275Z,2.00
2022-07-28T07:41:40.188Z,1.80
2022-07-28T07:46:43.068Z,2.00
2022-07-28T07:51:47.359Z,1.00
2022-07-28T07:56:50.261Z,1.00
2022-07-28T08:01:55.083Z,1.40
2022-07-28T08:06:59.503Z,1.00
2022-07-28T08:12:03.104Z,1.00
2022-07-28T08:17:05.883Z,1.00
2022-07-28T08:22:10.254Z,1.00
2022-07-28T08:27:13.290Z,1.00
2022-07-28T08:32:16.058Z,1.60
2022-07-28T08:37:20.452Z,1.00
2022-07-28T08:42:26.588Z,1.00
2022-07-28T08:47:40.582Z,0.00
2022-07-28T08:52:45.930Z,1.00
2022-07-28T08:57:48.705Z,1.00
2022-07-28T09:02:52.413Z,1.00
2022-07-28T09:07:56.777Z,1.60
2022-07-28T09:12:59.542Z,1.00
2022-07-28T09:18:02.749Z,0.20
2022-07-28T09:23:41.938Z,1.00
2022-07-28T09:28:30.326Z,4.60
2022-07-28T09:33:42.270Z,1.00
2022-07-28T09:38:48.216Z,1.60
2022-07-28T09:43:54.986Z,1.00
2022-07-28T09:48:59.611Z,1.00
2022-07-28T09:54:11.955Z,1.00
2022-07-28T09:59:16.196Z,1.00
2022-07-28T10:04:31.226Z,1.00
2022-07-28T10:09:35.357Z,0.00
2022-07-28T10:14:38.274Z,1.00
2022-07-28T10:19:41.311Z,1.00
2022-07-28T10:24:45.474Z,1.00
2022-07-28T10:29:48.246Z,1.00
2022-07-28T10:34:52.465Z,1.00
2022-07-28T10:40:10.080Z,1.00
2022-07-28T10:45:13.609Z,0.60
2022-07-28T10:50:16.563Z,1.00
2022-07-28T10:55:24.194Z,1.00
2022-07-28T11:00:27.103Z,1.00
2022-07-28T11:05:34.943Z,1.00
2022-07-28T11:10:49.181Z,2.00
2022-07-28T11:15:52.689Z,1.00
2022-07-28T11:21:10.299Z,1.00
2022-07-28T11:26:34.446Z,1.00
2022-07-28T11:32:13.907Z,1.00
2022-07-28T11:37:16.697Z,1.00
2022-07-28T11:42:27.024Z,1.00
2022-07-28T11:47:31.697Z,0.00
2022-07-28T11:52:34.419Z,1.00
2022-07-28T11:57:41.765Z,1.00
2022-07-28T12:02:44.714Z,1.00
2022-07-28T12:07:48.870Z,1.00
2022-07-28T12:12:53.554Z,1.00
2022-07-28T12:17:56.604Z,1.00
2022-07-28T12:23:00.909Z,1.00
2022-07-28T12:28:16.340Z,1.40
2022-07-28T12:33:26.080Z,1.00
2022-07-28T12:38:31.831Z,1.00
2022-07-28T12:43:35.911Z,0.80
2022-07-28T12:48:41.285Z,2.00
2022-07-28T12:53:51.630Z,1.00
2022-07-28T12:59:06.543Z,1.00
2022-07-28T13:04:09.284Z,3.00
2022-07-28T13:09:22.292Z,5.80
2022-07-28T13:14:43.599Z,4.20
2022-07-28T13:19:47.286Z,6.80
2022-07-28T13:24:50.455Z,5.00
2022-07-28T13:29:54.761Z,3.00
2022-07-28T13:34:57.834Z,1.60
2022-07-28T13:40:01.674Z,2.00
2022-07-28T13:45:06.505Z,2.00
2022-07-28T13:50:10.029Z,2.00
2022-07-28T13:55:16.008Z,1.00
2022-07-28T14:00:22.891Z,1.80
2022-07-28T14:05:32.177Z,1.00
2022-07-28T14:10:35.675Z,1.00
2022-07-28T14:15:40.274Z,1.00
2022-07-28T14:20:43.024Z,1.00
2022-07-28T14:25:49.421Z,1.00
2022-07-28T14:30:54.913Z,1.20
2022-07-28T14:35:57.761Z,1.00
2022-07-28T14:41:00.510Z,1.00
2022-07-28T14:46:16.164Z,1.00
2022-07-28T14:51:19.595Z,1.00
2022-07-28T14:56:22.636Z,1.00
2022-07-28T15:01:26.975Z,0.80
2022-07-28T15:06:29.892Z,0.20
2022-07-28T15:11:32.773Z,1.00
2022-07-28T15:16:38.256Z,1.00
2022-07-28T15:21:46.621Z,0.00
2022-07-28T15:26:49.757Z,2.00
2022-07-28T15:31:54.026Z,0.80
2022-07-28T15:36:56.983Z,1.00
2022-07-28T15:41:59.967Z,1.00
2022-07-28T15:47:04.145Z,1.00
2022-07-28T15:52:07.291Z,1.00
2022-07-28T15:57:10.119Z,1.00
2022-07-28T16:02:17.481Z,2.00
2022-07-28T16:07:28.444Z,3.00
2022-07-28T16:12:31.164Z,1.80
2022-07-28T16:17:35.830Z,1.00
2022-07-28T16:22:40.612Z,1.20
2022-07-28T16:27:43.437Z,1.00
2022-07-28T16:32:47.653Z,0.80
2022-07-28T16:37:50.506Z,1.00
2022-07-28T16:42:54.021Z,1.60
2022-07-28T16:47:58.748Z,1.00
2022-07-28T16:53:04.189Z,1.00
2022-07-28T16:58:06.963Z,1.00
2022-07-28T17:03:11.350Z,1.20
2022-07-28T17:08:14.345Z,0.40
2022-07-28T17:13:18.678Z,1.00
2022-07-28T17:18:23.076Z,1.00
2022-07-28T17:23:25.809Z,1.00
2022-07-28T17:28:28.605Z,1.00
2022-07-28T17:33:32.753Z,1.00
2022-07-28T17:38:35.555Z,1.00
2022-07-28T17:43:43.669Z,1.00
2022-07-28T17:48:49.599Z,1.00
2022-07-28T17:53:52.386Z,1.00
2022-07-28T17:58:57.668Z,1.00
2022-07-28T18:04:01.757Z,1.00
2022-07-28T18:09:07.085Z,1.00
2022-07-28T18:14:10.640Z,1.00
2022-07-28T18:19:14.927Z,1.00
2022-07-28T18:24:18.344Z,1.00
2022-07-28T18:29:22.282Z,1.00
2022-07-28T18:34:26.458Z,1.00
2022-07-28T18:39:30.620Z,1.00
2022-07-28T18:44:33.621Z,1.00
2022-07-28T18:49:38.181Z,1.00
2022-07-28T18:54:41.060Z,1.00
2022-07-28T18:59:47.694Z,1.00
2022-07-28T19:04:54.366Z,1.20
2022-07-28T19:09:57.322Z,1.00
2022-07-28T19:15:00.059Z,1.00
2022-07-28T19:20:06.291Z,2.00
2022-07-28T19:25:09.912Z,1.40
2022-07-28T19:30:13.180Z,1.40
2022-07-28T19:35:17.366Z,1.00
2022-07-28T19:40:20.279Z,1.60
2022-07-28T19:45:23.172Z,1.20
2022-07-28T19:50:27.551Z,2.00
2022-07-28T19:55:32.252Z,2.00
2022-07-28T20:00:35.039Z,2.00
2022-07-28T20:05:40.121Z,1.80
2022-07-28T20:10:43.055Z,2.00
2022-07-28T20:15:45.861Z,2.00
2022-07-28T20:20:50.038Z,2.00
2022-07-28T20:25:52.872Z,2.00
2022-07-28T20:30:55.690Z,2.80
2022-07-28T20:35:59.919Z,2.00
2022-07-28T20:41:02.729Z,2.00
2022-07-28T20:46:09.638Z,2.00
2022-07-28T20:51:13.845Z,2.00
2022-07-28T20:56:16.587Z,2.40
2022-07-28T21:01:23.160Z,2.00
2022-07-28T21:06:27.896Z,2.80
2022-07-28T21:11:35.138Z,2.40
2022-07-28T21:16:38.417Z,2.40
2022-07-28T21:21:42.554Z,2.60
2022-07-28T21:26:45.297Z,3.00
2022-07-28T21:32:03.815Z,2.20
2022-07-28T21:37:11.480Z,2.00
2022-07-28T21:42:14.711Z,2.20
2022-07-28T21:47:17.459Z,3.00
2022-07-28T21:52:21.967Z,2.00
2022-07-28T21:57:25.210Z,2.80
2022-07-28T22:02:28.194Z,2.60
2022-07-28T22:07:33.247Z,2.80
2022-07-28T22:12:36.017Z,2.00
2022-07-28T22:17:38.788Z,2.20
2022-07-28T22:22:42.879Z,2.00
2022-07-28T22:27:45.559Z,2.00
2022-07-28T22:32:48.335Z,2.00
2022-07-28T22:37:52.430Z,2.00
2022-07-28T22:42:55.201Z,2.40
2022-07-28T22:47:57.947Z,2.00
2022-07-28T22:53:02.018Z,2.60
2022-07-28T22:58:05.714Z,2.00
2022-07-28T23:03:11.762Z,2.80
2022-07-28T23:08:17.583Z,2.60
2022-07-28T23:13:20.470Z,2.40
2022-07-28T23:18:23.277Z,1.20
2022-07-28T23:23:27.601Z,2.00
2022-07-28T23:28:30.375Z,2.00
2022-07-28T23:33:54.493Z,2.40
2022-07-28T23:38:57.396Z,2.80
2022-07-28T23:44:00.180Z,2.00
2022-07-28T23:49:03.444Z,2.00
2022-07-28T23:54:07.559Z,2.20
2022-07-28T23:59:13.663Z,3.00
